Terminal Aerodrome Forecast
Issued by NWS Memphis, TN

Home | Current Version | Previous Version | Text Only | Print | Product List | Glossary On
Versions: 1 2 3 4 5 6 7 8 9 10 11 12 13 14 15 16 17 18 19
000
FTUS44 KMEG 040113 AAB
TAFMKL
TAF AMD
KMKL 040113Z 0401/0424 21007KT 6SM -SHRA SCT015 OVC050
      TEMPO 0401/0403 4SM -SHRA BKN015 OVC050
     FM040300 21007KT P6SM SCT015 OVC050
     FM040600 22004KT 2SM BR OVC005
     FM041400 22005KT 5SM BR BKN008 OVC020
     FM041600 23007KT P6SM VCSH BKN015 OVC100
     FM041800 23007KT P6SM VCTS SCT030CB OVC100=

USA.gov is the U.S. government's official web portal to all federal, state and local government web resources and services.